Terminal Aerodrome Forecast
Issued by NWS Corpus Christi, TX

Home | Current Version | Previous Version | Text Only | Print | Product List | Glossary On
Versions: 1 2 3 4 5 6 7 8 9 10 11 12 13 14 15 16 17 18 19
000
FTUS44 KCRP 270904 AAB
TAFCRP
TAF AMD
KCRP 270904Z 2709/2806 16011KT P6SM SCT015
      TEMPO 2709/2711 5SM BR BKN015
     FM271100 16006KT 4SM BR SCT005 BKN012
      TEMPO 2711/2713 2SM BR BKN005
     FM271600 16007KT P6SM FEW006 BKN012
     FM271900 15015G20KT P6SM BKN015
     FM280200 14011KT P6SM BKN010=

USA.gov is the U.S. government's official web portal to all federal, state and local government web resources and services.